createdAt,value
2022-09-04T00:02:38.197Z,9.25
2022-09-04T00:05:13.531Z,8.95
2022-09-04T00:08:03.372Z,10.57
2022-09-04T00:10:40.716Z,9.52
2022-09-04T00:13:15.477Z,8.98
2022-09-04T00:15:47.878Z,11.60
2022-09-04T00:18:27.721Z,8.07
2022-09-04T00:21:01.968Z,8.77
2022-09-04T00:23:36.172Z,9.90
2022-09-04T00:26:14.893Z,11.18
2022-09-04T00:28:51.013Z,8.40
2022-09-04T00:31:26.825Z,9.05
2022-09-04T00:34:04.562Z,13.10
2022-09-04T00:36:32.230Z,8.20
2022-09-04T00:39:09.285Z,9.15
2022-09-04T00:42:01.210Z,10.40
2022-09-04T00:44:59.363Z,9.15
2022-09-04T00:47:43.582Z,9.35
2022-09-04T00:50:29.319Z,7.75
2022-09-04T00:53:10.578Z,11.40
2022-09-04T00:55:56.950Z,10.60
2022-09-04T00:58:48.149Z,8.15
2022-09-04T01:01:23.553Z,12.18
2022-09-04T01:06:36.020Z,8.10
2022-09-04T01:09:25.265Z,14.75
2022-09-04T01:12:07.198Z,10.02
2022-09-04T01:14:43.051Z,8.27
2022-09-04T01:17:18.858Z,9.10
2022-09-04T01:20:01.415Z,8.57
2022-09-04T01:22:49.422Z,9.90
2022-09-04T01:25:38.390Z,10.43
2022-09-04T01:28:14.225Z,10.55
2022-09-04T01:30:47.198Z,8.93
2022-09-04T01:33:24.502Z,10.13
2022-09-04T01:36:01.730Z,9.73
2022-09-04T01:38:37.864Z,8.75
2022-09-04T01:41:14.056Z,9.75
2022-09-04T01:43:43.864Z,9.98
2022-09-04T01:46:27.680Z,11.93
2022-09-04T01:49:04.461Z,8.80
2022-09-04T01:51:40.631Z,9.93
2022-09-04T01:54:26.038Z,7.80
2022-09-04T01:57:09.068Z,10.35
2022-09-04T01:59:53.891Z,10.90
2022-09-04T02:02:29.669Z,9.98
2022-09-04T02:07:44.813Z,14.88
2022-09-04T02:10:23.429Z,7.85
2022-09-04T02:13:07.672Z,12.50
2022-09-04T02:15:44.431Z,7.97
2022-09-04T02:18:24.309Z,10.68
2022-09-04T02:20:59.509Z,8.50
2022-09-04T02:23:36.976Z,9.63
2022-09-04T02:26:12.164Z,8.85
2022-09-04T02:28:52.348Z,12.55
2022-09-04T02:31:31.262Z,11.85
2022-09-04T02:34:06.866Z,9.15
2022-09-04T02:36:41.519Z,9.63
2022-09-04T02:39:24.031Z,8.63
2022-09-04T02:42:00.490Z,9.27
2022-09-04T02:44:43.377Z,9.18
2022-09-04T02:47:24.183Z,9.20
2022-09-04T02:50:03.676Z,9.80
2022-09-04T02:52:52.312Z,9.98
2022-09-04T02:55:31.349Z,10.07
2022-09-04T02:58:11.037Z,12.20
2022-09-04T03:00:46.914Z,10.60
2022-09-04T03:03:21.553Z,9.35
2022-09-04T03:05:56.976Z,10.40
2022-09-04T03:08:34.406Z,8.65
2022-09-04T03:11:13.481Z,8.90
2022-09-04T03:13:50.584Z,8.25
2022-09-04T03:16:24.901Z,10.48
2022-09-04T03:19:08.692Z,11.05
2022-09-04T03:21:46.414Z,8.35
2022-09-04T03:24:22.595Z,13.18
2022-09-04T03:26:53.287Z,9.15
2022-09-04T03:29:30.743Z,11.13
2022-09-04T03:32:16.305Z,9.75
2022-09-04T03:34:54.266Z,12.60
2022-09-04T03:37:40.363Z,9.48
2022-09-04T03:40:19.054Z,9.77
2022-09-04T03:43:01.167Z,8.27
2022-09-04T03:45:40.050Z,8.63
2022-09-04T03:48:19.316Z,9.43
2022-09-04T03:50:58.101Z,8.18
2022-09-04T03:53:34.564Z,8.77
2022-09-04T03:56:23.994Z,10.80
2022-09-04T03:59:02.586Z,9.77
2022-09-04T04:01:41.903Z,8.07
2022-09-04T04:04:44.313Z,11.70
2022-09-04T04:07:24.929Z,14.70
2022-09-04T04:10:02.773Z,10.90
2022-09-04T04:13:03.062Z,8.57
2022-09-04T04:15:44.886Z,11.98
2022-09-04T04:18:45.243Z,12.68
2022-09-04T04:21:25.284Z,8.70
2022-09-04T04:24:18.399Z,11.48
2022-09-04T04:26:58.851Z,8.10
2022-09-04T04:29:56.010Z,9.38
2022-09-04T04:32:33.756Z,8.65
2022-09-04T04:35:23.778Z,10.20
2022-09-04T04:38:04.322Z,11.15
2022-09-04T04:40:47.826Z,8.15
2022-09-04T04:43:26.984Z,7.85
2022-09-04T04:46:03.643Z,8.63
2022-09-04T04:49:01.325Z,10.18
2022-09-04T04:51:42.871Z,8.13
2022-09-04T04:54:26.840Z,8.48
2022-09-04T04:57:04.485Z,8.27
2022-09-04T04:59:41.099Z,9.07
2022-09-04T05:02:19.241Z,9.43
2022-09-04T05:04:56.441Z,10.48
2022-09-04T05:07:31.020Z,9.05
2022-09-04T05:10:05.257Z,9.25
2022-09-04T05:12:52.349Z,10.43
2022-09-04T05:15:28.469Z,9.60
2022-09-04T05:18:00.944Z,10.82
2022-09-04T05:20:41.413Z,10.82
2022-09-04T05:23:28.965Z,9.48
2022-09-04T05:26:07.260Z,11.88
2022-09-04T05:28:48.777Z,8.80
2022-09-04T05:31:24.714Z,8.68
2022-09-04T05:34:00.932Z,10.98
2022-09-04T05:36:41.552Z,12.00
2022-09-04T05:39:20.173Z,10.77
2022-09-04T05:42:06.608Z,11.18
2022-09-04T05:44:57.728Z,9.95
2022-09-04T05:47:37.311Z,10.05
2022-09-04T05:50:47.194Z,9.90
2022-09-04T05:53:39.157Z,8.27
2022-09-04T05:56:30.913Z,9.65
2022-09-04T05:59:16.970Z,9.27
2022-09-04T06:02:18.247Z,10.93
2022-09-04T06:05:16.021Z,10.60
2022-09-04T06:07:55.662Z,10.38
2022-09-04T06:10:30.893Z,11.32
2022-09-04T06:13:20.533Z,8.43
2022-09-04T06:16:03.727Z,9.25
2022-09-04T06:18:58.728Z,8.43
2022-09-04T06:24:33.794Z,9.02
2022-09-04T06:27:24.250Z,9.38
2022-09-04T06:30:16.496Z,8.63
2022-09-04T06:33:25.395Z,8.32
2022-09-04T06:36:20.416Z,6.72
2022-09-04T06:39:11.863Z,6.45
2022-09-04T06:41:51.524Z,8.77
2022-09-04T06:44:31.880Z,7.60
2022-09-04T06:47:11.734Z,7.47
2022-09-04T06:49:50.961Z,6.32
2022-09-04T06:52:30.214Z,5.70
2022-09-04T06:55:01.426Z,7.13
2022-09-04T06:57:55.556Z,6.03
2022-09-04T07:00:25.342Z,6.43
2022-09-04T07:03:20.784Z,7.00
2022-09-04T07:05:59.531Z,5.80
2022-09-04T07:08:40.177Z,6.18
2022-09-04T07:11:19.538Z,6.15
2022-09-04T07:13:59.869Z,5.20
2022-09-04T07:16:42.082Z,5.88
2022-09-04T07:20:06.264Z,5.47
2022-09-04T07:23:17.300Z,6.00
2022-09-04T07:25:57.855Z,6.28
2022-09-04T07:28:50.503Z,6.00
2022-09-04T07:31:23.856Z,5.30
2022-09-04T07:33:59.640Z,6.03
2022-09-04T07:36:34.853Z,6.10
2022-09-04T07:39:13.156Z,5.25
2022-09-04T07:41:49.907Z,5.03
2022-09-04T07:44:24.502Z,5.72
2022-09-04T07:46:59.368Z,5.07
2022-09-04T07:49:35.002Z,5.53
2022-09-04T07:52:11.103Z,6.45
2022-09-04T07:54:53.733Z,4.40
2022-09-04T07:57:38.844Z,7.28
2022-09-04T08:03:14.089Z,5.50
2022-09-04T08:05:48.022Z,6.18
2022-09-04T08:08:55.846Z,4.78
2022-09-04T08:12:03.682Z,5.80
2022-09-04T08:14:52.803Z,4.63
2022-09-04T08:17:49.571Z,4.97
2022-09-04T08:20:33.435Z,5.45
2022-09-04T08:23:17.616Z,6.40
2022-09-04T08:25:55.197Z,6.73
2022-09-04T08:28:45.936Z,5.10
2022-09-04T08:31:24.023Z,5.28
2022-09-04T08:34:10.237Z,4.55
2022-09-04T08:36:46.587Z,5.25
2022-09-04T08:39:27.636Z,5.20
2022-09-04T08:42:39.454Z,6.45
2022-09-04T08:45:35.126Z,5.57
2022-09-04T08:48:46.764Z,6.27
2022-09-04T08:51:49.980Z,7.40
2022-09-04T08:54:44.676Z,6.57
2022-09-04T08:57:48.446Z,6.45
2022-09-04T09:00:17.486Z,5.40
2022-09-04T09:03:26.604Z,5.70
2022-09-04T09:06:40.207Z,6.00
2022-09-04T09:09:50.072Z,6.65
2022-09-04T09:12:41.910Z,6.70
2022-09-04T09:15:23.460Z,5.45
2022-09-04T09:18:02.095Z,4.80
2022-09-04T09:20:33.056Z,6.88
2022-09-04T09:23:20.260Z,5.90
2022-09-04T09:26:07.919Z,6.00
2022-09-04T09:29:12.103Z,5.50
2022-09-04T09:32:16.555Z,5.30
2022-09-04T09:35:20.867Z,5.50
2022-09-04T09:41:18.045Z,5.30
2022-09-04T09:44:24.036Z,5.22
2022-09-04T09:47:16.619Z,5.72
2022-09-04T09:50:14.199Z,5.70
2022-09-04T09:53:23.896Z,6.05
2022-09-04T09:56:15.953Z,5.22
2022-09-04T09:59:28.764Z,6.50
2022-09-04T10:02:25.259Z,6.30
2022-09-04T10:05:19.254Z,6.28
2022-09-04T10:08:12.749Z,5.65
2022-09-04T10:11:25.594Z,6.05
2022-09-04T10:14:30.888Z,5.72
2022-09-04T10:17:26.246Z,6.22
2022-09-04T10:20:26.516Z,5.38
2022-09-04T10:23:27.191Z,7.43
2022-09-04T10:26:33.179Z,4.85
2022-09-04T10:29:30.432Z,5.53
2022-09-04T10:32:45.908Z,7.40
2022-09-04T10:35:24.092Z,5.95
2022-09-04T10:38:07.400Z,6.55
2022-09-04T10:40:50.637Z,4.68
2022-09-04T10:43:39.303Z,5.80
2022-09-04T10:46:10.452Z,5.50
2022-09-04T10:49:24.927Z,5.43
2022-09-04T10:52:25.931Z,5.72
2022-09-04T10:55:18.587Z,5.78
2022-09-04T10:58:05.295Z,5.07
2022-09-04T11:00:40.086Z,5.65
2022-09-04T11:03:36.130Z,7.78
2022-09-04T11:06:38.286Z,4.40
2022-09-04T11:09:33.820Z,5.47
2022-09-04T11:12:31.900Z,4.38
2022-09-04T11:15:25.272Z,8.05
2022-09-04T11:18:22.944Z,5.18
2022-09-04T11:21:33.088Z,7.60
2022-09-04T11:24:40.009Z,5.10
2022-09-04T11:27:43.486Z,5.20
2022-09-04T11:30:17.086Z,5.68
2022-09-04T11:33:20.338Z,4.15
2022-09-04T11:36:20.959Z,5.20
2022-09-04T11:39:35.026Z,5.78
2022-09-04T11:42:25.948Z,5.55
2022-09-04T11:45:37.059Z,5.35
2022-09-04T11:48:43.740Z,4.78
2022-09-04T11:51:32.030Z,4.50
2022-09-04T11:54:19.809Z,4.90
2022-09-04T11:57:16.476Z,4.85
2022-09-04T12:00:02.457Z,5.45
2022-09-04T12:03:20.445Z,5.97
2022-09-04T12:06:12.362Z,5.03
2022-09-04T12:09:08.306Z,4.38
2022-09-04T12:12:17.095Z,5.75
2022-09-04T12:15:10.113Z,4.75
2022-09-04T12:18:08.154Z,5.43
2022-09-04T12:21:07.151Z,4.72
2022-09-04T12:24:04.542Z,8.48
2022-09-04T12:27:04.728Z,5.07
2022-09-04T12:30:02.409Z,4.47
2022-09-04T12:33:08.477Z,5.82
2022-09-04T12:36:12.640Z,5.32
2022-09-04T12:41:17.836Z,5.75
2022-09-04T12:44:00.189Z,4.60
2022-09-04T12:46:45.323Z,6.45
2022-09-04T12:49:38.474Z,7.75
2022-09-04T12:52:13.543Z,6.70
2022-09-04T12:57:25.753Z,7.22
2022-09-04T13:00:05.997Z,9.10
2022-09-04T13:02:50.065Z,6.50
2022-09-04T13:05:32.689Z,4.53
2022-09-04T13:08:12.264Z,7.22
2022-09-04T13:10:52.721Z,7.95
2022-09-04T13:13:28.824Z,5.95
2022-09-04T13:16:01.869Z,7.28
2022-09-04T13:18:51.311Z,5.38
2022-09-04T13:21:27.623Z,6.95
2022-09-04T13:24:12.530Z,6.45
2022-09-04T13:29:25.535Z,5.82
2022-09-04T13:32:04.485Z,6.10
2022-09-04T13:34:48.614Z,5.15
2022-09-04T13:37:24.994Z,4.67
2022-09-04T13:40:21.965Z,7.43
2022-09-04T13:43:26.037Z,6.18
2022-09-04T13:48:33.701Z,3.20
2022-09-04T13:51:13.499Z,4.25
2022-09-04T13:53:58.177Z,1.65
2022-09-04T13:56:31.799Z,3.83
2022-09-04T13:59:02.710Z,2.08
2022-09-04T14:01:33.653Z,4.30
2022-09-04T14:04:05.626Z,2.80
2022-09-04T14:06:37.633Z,3.47
2022-09-04T14:09:06.342Z,5.45
2022-09-04T14:11:49.308Z,5.97
2022-09-04T14:14:58.613Z,6.55
2022-09-04T14:17:35.607Z,5.85
2022-09-04T14:20:12.655Z,5.43
2022-09-04T14:22:49.454Z,6.32
2022-09-04T14:25:30.356Z,6.32
2022-09-04T14:28:02.042Z,5.05
2022-09-04T14:30:35.389Z,7.68
2022-09-04T14:33:24.407Z,5.80
2022-09-04T14:36:07.874Z,6.32
2022-09-04T14:39:01.018Z,6.95
2022-09-04T14:41:46.359Z,4.32
2022-09-04T14:44:27.110Z,5.88
2022-09-04T14:47:03.901Z,5.60
2022-09-04T14:49:32.778Z,5.85
2022-09-04T14:52:10.148Z,6.78
2022-09-04T14:54:40.783Z,5.22
2022-09-04T14:57:18.223Z,7.18
2022-09-04T14:59:50.985Z,8.27
2022-09-04T15:02:26.605Z,4.75
2022-09-04T15:05:01.659Z,5.82
2022-09-04T15:07:50.231Z,4.82
2022-09-04T15:10:23.485Z,8.38
2022-09-04T15:12:56.112Z,6.43
2022-09-04T15:15:30.096Z,7.22
2022-09-04T15:18:10.621Z,5.28
2022-09-04T15:20:45.942Z,6.68
2022-09-04T15:23:20.233Z,6.00
2022-09-04T15:25:59.786Z,5.67
2022-09-04T15:28:32.304Z,6.32
2022-09-04T15:31:10.921Z,6.10
2022-09-04T15:33:41.543Z,5.65
2022-09-04T15:36:15.156Z,6.45
2022-09-04T15:38:49.480Z,7.65
2022-09-04T15:41:27.191Z,7.60
2022-09-04T15:44:00.906Z,7.85
2022-09-04T15:46:41.558Z,9.32
2022-09-04T15:49:33.908Z,8.02
2022-09-04T15:52:18.955Z,7.70
2022-09-04T15:55:09.955Z,8.55
2022-09-04T15:57:51.988Z,7.78
2022-09-04T16:00:25.742Z,12.63
2022-09-04T16:03:00.668Z,9.18
2022-09-04T16:05:39.064Z,7.90
2022-09-04T16:08:22.287Z,7.47
2022-09-04T16:10:56.523Z,9.90
2022-09-04T16:13:46.077Z,7.75
2022-09-04T16:16:19.409Z,9.50
2022-09-04T16:19:01.300Z,12.23
2022-09-04T16:21:39.794Z,8.02
2022-09-04T16:24:13.878Z,12.18
2022-09-04T16:26:41.220Z,7.78
2022-09-04T16:29:26.261Z,7.32
2022-09-04T16:31:55.905Z,15.35
2022-09-04T16:34:27.750Z,11.30
2022-09-04T16:36:58.966Z,11.70
2022-09-04T16:39:31.858Z,9.25
2022-09-04T16:42:09.820Z,8.35
2022-09-04T16:44:43.606Z,8.00
2022-09-04T16:47:19.810Z,7.70
2022-09-04T16:49:56.916Z,8.98
2022-09-04T16:52:58.607Z,10.00
2022-09-04T16:55:46.719Z,11.07
2022-09-04T16:58:21.270Z,10.00
2022-09-04T17:01:13.762Z,9.55
2022-09-04T17:04:12.937Z,10.27
2022-09-04T17:06:48.930Z,9.05
2022-09-04T17:09:23.037Z,10.00
2022-09-04T17:11:55.899Z,9.77
2022-09-04T17:14:31.871Z,10.38
2022-09-04T17:17:30.841Z,8.43
2022-09-04T17:20:02.384Z,8.77
2022-09-04T17:28:04.877Z,11.45
2022-09-04T17:29:10.938Z,8.73
2022-09-04T17:29:15.426Z,8.30
2022-09-04T17:31:33.734Z,8.27
2022-09-04T17:40:06.225Z,10.68
2022-09-04T17:40:48.836Z,10.43
2022-09-04T17:40:53.995Z,8.15
2022-09-04T17:42:57.099Z,9.95
2022-09-04T17:45:51.293Z,8.20
2022-09-04T17:48:22.238Z,12.88
2022-09-04T17:50:54.821Z,7.43
2022-09-04T17:53:34.135Z,9.68
2022-09-04T17:56:07.948Z,8.90
2022-09-04T17:58:43.666Z,8.63
2022-09-04T18:01:17.988Z,8.57
2022-09-04T18:04:20.025Z,7.95
2022-09-04T18:06:52.331Z,9.35
2022-09-04T18:09:27.602Z,8.55
2022-09-04T18:12:04.508Z,9.25
2022-09-04T18:14:40.485Z,9.20
2022-09-04T18:17:17.797Z,8.73
2022-09-04T18:19:47.100Z,8.02
2022-09-04T18:22:33.718Z,8.93
2022-09-04T18:25:17.118Z,9.70
2022-09-04T18:28:11.600Z,17.15
2022-09-04T18:37:05.561Z,10.55
2022-09-04T18:37:18.211Z,8.50
2022-09-04T18:37:25.321Z,6.78
2022-09-04T18:39:40.101Z,8.68
2022-09-04T18:50:20.218Z,9.85
2022-09-04T18:50:22.959Z,10.13
2022-09-04T18:50:43.932Z,8.15
2022-09-04T18:51:18.355Z,8.40
2022-09-04T18:53:48.931Z,8.30
2022-09-04T18:56:25.098Z,8.40
2022-09-04T18:59:01.261Z,10.93
2022-09-04T19:01:40.869Z,8.93
2022-09-04T19:04:38.376Z,11.93
2022-09-04T19:07:09.975Z,9.35
2022-09-04T19:09:58.194Z,10.27
2022-09-04T19:12:47.707Z,8.85
2022-09-04T19:15:37.678Z,8.35
2022-09-04T19:18:16.058Z,12.55
2022-09-04T19:20:49.084Z,7.35
2022-09-04T19:23:27.347Z,7.47
2022-09-04T19:26:00.180Z,7.50
2022-09-04T19:28:52.902Z,8.27
2022-09-04T19:31:30.782Z,7.85
2022-09-04T19:34:04.470Z,10.85
2022-09-04T19:36:39.506Z,8.07
2022-09-04T19:45:53.509Z,9.73
2022-09-04T19:46:00.850Z,8.60
2022-09-04T19:46:17.656Z,8.07
2022-09-04T19:48:16.380Z,12.13
2022-09-04T19:53:23.109Z,7.60
2022-09-04T19:53:49.185Z,7.82
2022-09-04T19:56:29.095Z,8.05
2022-09-04T19:59:04.214Z,10.23
2022-09-04T20:01:43.927Z,8.85
2022-09-04T20:04:21.839Z,10.75
2022-09-04T20:06:53.876Z,8.05
2022-09-04T20:09:27.901Z,9.15
2022-09-04T20:11:59.660Z,8.77
2022-09-04T20:14:31.684Z,9.63
2022-09-04T20:17:17.619Z,9.35
2022-09-04T20:19:48.694Z,9.98
2022-09-04T20:22:30.729Z,7.75
2022-09-04T20:25:13.640Z,10.93
2022-09-04T20:27:44.495Z,8.90
2022-09-04T20:30:17.848Z,8.15
2022-09-04T20:32:53.101Z,9.90
2022-09-04T20:35:33.368Z,7.75
2022-09-04T20:38:06.154Z,7.45
2022-09-04T20:40:44.659Z,8.13
2022-09-04T20:43:24.656Z,7.70
2022-09-04T20:49:12.178Z,7.95
2022-09-04T20:52:52.242Z,7.45
2022-09-04T20:55:07.686Z,11.80
2022-09-04T21:01:35.126Z,8.13
2022-09-04T21:03:19.488Z,11.30
2022-09-04T21:03:57.093Z,7.88
2022-09-04T21:06:33.598Z,9.48
2022-09-04T21:09:18.572Z,8.57
2022-09-04T21:11:48.967Z,9.18
2022-09-04T21:14:21.585Z,10.40
2022-09-04T21:17:34.284Z,9.30
2022-09-04T21:20:48.618Z,9.57
2022-09-04T21:24:03.036Z,10.65
2022-09-04T21:26:48.976Z,8.90
2022-09-04T21:29:37.406Z,10.05
2022-09-04T21:32:39.510Z,8.27
2022-09-04T21:35:12.801Z,7.53
2022-09-04T21:37:50.886Z,10.85
2022-09-04T21:41:05.740Z,8.95
2022-09-04T21:44:22.385Z,9.15
2022-09-04T21:47:08.521Z,8.45
2022-09-04T21:50:00.942Z,8.18
2022-09-04T21:52:55.989Z,9.70
2022-09-04T21:56:33.287Z,8.00
2022-09-04T22:02:43.088Z,8.55
2022-09-04T22:04:36.113Z,9.88
2022-09-04T22:10:39.891Z,8.88
2022-09-04T22:13:30.856Z,9.55
2022-09-04T22:13:48.023Z,13.05
2022-09-04T22:16:06.750Z,13.10
2022-09-04T22:19:11.500Z,9.30
2022-09-04T22:22:03.482Z,8.77
2022-09-04T22:25:00.953Z,8.07
2022-09-04T22:28:11.033Z,9.20
2022-09-04T22:30:58.561Z,11.15
2022-09-04T22:34:15.539Z,11.07
2022-09-04T22:37:25.385Z,7.78
2022-09-04T22:40:25.125Z,10.10
2022-09-04T22:43:10.465Z,8.93
2022-09-04T22:46:06.210Z,9.70
2022-09-04T22:49:12.411Z,12.05
2022-09-04T22:52:13.914Z,8.20
2022-09-04T22:55:13.078Z,8.15
2022-09-04T22:58:08.493Z,12.25
2022-09-04T23:00:58.558Z,7.82
2022-09-04T23:03:41.940Z,8.63
2022-09-04T23:08:34.565Z,7.80
2022-09-04T23:13:46.718Z,9.63
2022-09-04T23:15:43.444Z,10.77
2022-09-04T23:22:36.800Z,9.07
2022-09-04T23:26:35.820Z,9.45
2022-09-04T23:26:50.539Z,15.15
2022-09-04T23:27:50.934Z,11.20
2022-09-04T23:30:25.148Z,9.18
2022-09-04T23:33:38.972Z,9.25
2022-09-04T23:36:55.963Z,10.07
2022-09-04T23:39:46.818Z,8.48
2022-09-04T23:42:30.671Z,10.68
2022-09-04T23:45:21.494Z,15.18
2022-09-04T23:48:16.653Z,16.45
2022-09-04T23:50:54.379Z,8.73
2022-09-04T23:53:31.532Z,10.57
2022-09-04T23:56:24.689Z,8.77
2022-09-04T23:59:05.113Z,12.48
